CWA weather

Central Wisconsin Airport
Mosinee, Wisconsin, United States

Public forecast

Using degrees Fahrenheit for public forecast. Weather courtesy of forecast.io.

METAR (pilot weather report)

Retrieved 2019/08/21 15:47 UTC (1 hour ago):

KCWA 211547Z 31011G17KT 10SM SCT025 21/14 A3001

TAF (pilot weather forecast)

Retrieved 2019/08/21 12:22 UTC (5 hours ago):

TAF KCWA 211120Z 2112/2212 34006KT P6SM SCT007 FM211500 32008KT P6SM SCT035 FM211700 32008G15KT P6SM SCT070 FM212200 31005KT P6SM SKC FM220400 35003KT P6SM SCT120